createdAt,value
2023-02-14T00:01:00.282Z,103204.69
2023-02-14T00:06:07.178Z,103206.41
2023-02-14T00:11:11.722Z,103198.50
2023-02-14T00:16:14.314Z,103208.16
2023-02-14T00:21:16.898Z,103202.78
2023-02-14T00:26:20.786Z,103198.50
2023-02-14T00:31:23.687Z,103195.03
2023-02-14T00:36:26.526Z,103196.88
2023-02-14T00:41:30.651Z,103188.13
2023-02-14T00:46:33.661Z,103204.88
2023-02-14T00:51:37.183Z,103188.38
2023-02-14T00:56:41.521Z,103206.78
2023-02-14T01:01:45.190Z,103197.91
2023-02-14T01:06:47.744Z,103190.28
2023-02-14T01:11:52.007Z,103202.50
2023-02-14T01:16:54.639Z,103205.13
2023-02-14T01:22:00.299Z,103211.41
2023-02-14T01:27:04.386Z,103199.09
2023-02-14T01:32:08.297Z,103170.56
2023-02-14T01:37:11.009Z,103195.88
2023-02-14T01:42:14.955Z,103186.09
2023-02-14T01:47:18.495Z,103173.28
2023-02-14T01:52:24.648Z,103191.13
2023-02-14T01:57:36.489Z,103180.53
2023-02-14T02:02:39.114Z,103181.44
2023-02-14T02:07:42.760Z,103181.53
2023-02-14T02:12:48.958Z,103174.63
2023-02-14T02:18:03.814Z,103174.78
2023-02-14T02:23:36.130Z,103166.06
2023-02-14T02:29:07.120Z,103176.88
2023-02-14T02:34:28.110Z,103168.13
2023-02-14T02:39:46.056Z,103150.78
2023-02-14T02:44:57.832Z,103137.69
2023-02-14T02:50:24.221Z,103126.31
2023-02-14T02:55:56.683Z,103163.00
2023-02-14T03:01:04.453Z,103159.53
2023-02-14T03:06:07.755Z,103157.06
2023-02-14T03:11:13.881Z,103157.06
2023-02-14T03:16:33.019Z,103157.91
2023-02-14T03:21:42.951Z,103160.66
2023-02-14T03:26:50.022Z,103152.78
2023-02-14T03:32:01.465Z,103163.31
2023-02-14T03:37:11.815Z,103170.50
2023-02-14T03:42:20.197Z,103170.63
2023-02-14T03:47:25.752Z,103173.41
2023-02-14T03:52:30.517Z,103176.91
2023-02-14T03:57:41.829Z,103156.72
2023-02-14T04:02:47.365Z,103171.63
2023-02-14T04:07:52.114Z,103174.22
2023-02-14T04:12:55.969Z,103175.16
2023-02-14T04:18:16.609Z,103175.31
2023-02-14T04:23:19.206Z,103176.84
2023-02-14T04:28:23.181Z,103176.16
2023-02-14T04:33:25.703Z,103163.06
2023-02-14T04:38:28.725Z,103146.63
2023-02-14T04:43:32.600Z,103160.63
2023-02-14T04:48:35.115Z,103154.72
2023-02-14T04:53:40.222Z,103105.03
2023-02-14T04:58:44.207Z,103132.00
2023-02-14T05:03:46.738Z,103141.75
2023-02-14T05:08:49.385Z,103129.56
2023-02-14T05:13:53.276Z,103136.69
2023-02-14T05:18:56.367Z,103125.38
2023-02-14T05:23:58.890Z,103121.97
2023-02-14T05:29:02.777Z,103120.13
2023-02-14T05:34:05.329Z,103121.84
2023-02-14T05:39:07.875Z,103123.66
2023-02-14T05:44:12.303Z,103114.06
2023-02-14T05:49:14.838Z,103113.13
2023-02-14T05:54:17.390Z,103120.13
2023-02-14T05:59:21.523Z,103114.66
2023-02-14T06:04:24.123Z,103125.50
2023-02-14T06:09:26.857Z,103127.47
2023-02-14T06:14:32.626Z,103132.91
2023-02-14T06:19:36.215Z,103130.50
2023-02-14T06:24:38.816Z,103132.28
2023-02-14T06:29:42.671Z,103134.31
2023-02-14T06:34:45.591Z,103132.81
2023-02-14T06:39:48.524Z,103144.38
2023-02-14T06:44:52.575Z,103148.88
2023-02-14T06:49:55.364Z,103145.38
2023-02-14T06:54:57.974Z,103153.31
2023-02-14T07:00:01.834Z,103156.84
2023-02-14T07:05:04.790Z,103161.25
2023-02-14T07:10:08.480Z,103157.75
2023-02-14T07:15:15.977Z,103143.56
2023-02-14T07:20:19.158Z,103152.19
2023-02-14T07:25:22.557Z,103145.91
2023-02-14T07:30:26.521Z,103141.31
2023-02-14T07:35:29.131Z,103144.69
2023-02-14T07:40:31.697Z,103146.28
2023-02-14T07:45:35.609Z,103152.28
2023-02-14T07:50:38.136Z,103160.00
2023-02-14T07:55:41.451Z,103161.69
2023-02-14T08:00:46.362Z,103160.56
2023-02-14T08:05:56.879Z,103163.06
2023-02-14T08:11:00.168Z,103163.84
2023-02-14T08:16:07.512Z,103175.09
2023-02-14T08:21:11.773Z,103158.94
2023-02-14T08:26:14.370Z,103168.63
2023-02-14T08:31:34.392Z,103131.94
2023-02-14T08:36:38.015Z,103154.44
2023-02-14T08:41:40.559Z,103161.31
2023-02-14T08:46:44.441Z,103169.50
2023-02-14T08:51:46.956Z,103158.53
2023-02-14T08:56:49.500Z,103140.16
2023-02-14T09:01:53.507Z,103160.03
2023-02-14T09:06:56.055Z,103156.25
2023-02-14T09:11:58.728Z,103151.72
2023-02-14T09:17:05.270Z,103137.47
2023-02-14T09:22:10.410Z,103133.75
2023-02-14T09:27:13.007Z,103121.28
2023-02-14T09:32:17.083Z,103129.00
2023-02-14T09:37:37.197Z,103126.19
2023-02-14T09:42:52.577Z,103122.41
2023-02-14T09:48:00.944Z,103124.09
2023-02-14T09:53:08.979Z,103122.09
2023-02-14T09:58:15.956Z,103117.53
2023-02-14T10:03:55.641Z,103112.34
2023-02-14T10:09:07.502Z,103114.00
2023-02-14T10:14:15.308Z,103113.63
2023-02-14T10:19:23.479Z,103108.81
2023-02-14T10:24:29.327Z,103113.16
2023-02-14T10:29:31.910Z,103113.06
2023-02-14T10:34:42.730Z,103104.91
2023-02-14T10:40:27.511Z,103103.84
2023-02-14T10:45:38.219Z,103102.00
2023-02-14T10:50:50.499Z,103096.69
2023-02-14T10:55:58.595Z,103096.41
2023-02-14T11:01:04.592Z,103089.13
2023-02-14T11:06:09.693Z,103076.78
2023-02-14T11:11:20.310Z,103077.41
2023-02-14T11:16:32.411Z,103068.41
2023-02-14T11:21:39.863Z,103071.69
2023-02-14T11:26:46.610Z,103069.03
2023-02-14T11:31:49.650Z,103074.03
2023-02-14T11:36:53.663Z,103058.75
2023-02-14T11:41:58.319Z,103059.38
2023-02-14T11:47:19.761Z,103057.34
2023-02-14T11:52:26.524Z,103040.28
2023-02-14T11:57:33.727Z,103024.25
2023-02-14T12:02:40.231Z,103026.84
2023-02-14T12:07:47.052Z,103025.78
2023-02-14T12:12:51.715Z,103023.06
2023-02-14T12:18:03.774Z,103010.81
2023-02-14T12:23:16.676Z,102998.44
2023-02-14T12:28:26.641Z,102987.75
2023-02-14T12:33:33.111Z,102977.09
2023-02-14T12:38:51.808Z,102969.13
2023-02-14T12:43:56.093Z,102964.72
2023-02-14T12:49:16.229Z,102958.31
2023-02-14T12:54:35.844Z,102942.56
2023-02-14T12:59:49.321Z,102944.41
2023-02-14T13:04:58.580Z,102943.53
2023-02-14T13:10:14.019Z,102931.56
2023-02-14T13:15:27.391Z,102922.94
2023-02-14T13:20:40.648Z,102925.66
2023-02-14T13:25:49.911Z,102918.75
2023-02-14T13:30:52.934Z,102917.34
2023-02-14T13:35:59.142Z,102915.38
2023-02-14T13:41:05.371Z,102906.13
2023-02-14T13:46:08.387Z,102907.09
2023-02-14T13:51:11.813Z,102897.56
2023-02-14T13:56:35.721Z,102891.16
2023-02-14T14:01:42.319Z,102834.91
2023-02-14T14:07:26.944Z,102886.22
2023-02-14T14:12:44.386Z,102872.91
2023-02-14T14:17:51.054Z,102873.59
2023-02-14T14:22:56.134Z,102860.84
2023-02-14T14:28:01.024Z,102861.88
2023-02-14T14:33:14.600Z,102861.75
2023-02-14T14:38:17.251Z,102851.75
2023-02-14T14:43:27.002Z,102839.38
2023-02-14T14:48:33.265Z,102846.25
2023-02-14T14:53:44.255Z,102826.56
2023-02-14T14:58:48.587Z,102823.06
2023-02-14T15:03:51.140Z,102824.91
2023-02-14T15:08:54.426Z,102814.25
2023-02-14T15:13:58.663Z,102808.38
2023-02-14T15:19:08.354Z,102804.31
2023-02-14T15:24:15.564Z,102791.50
2023-02-14T15:29:25.957Z,102802.47
2023-02-14T15:34:32.418Z,102788.78
2023-02-14T15:39:39.258Z,102794.34
2023-02-14T15:44:43.256Z,102789.38
2023-02-14T15:49:47.351Z,102769.59
2023-02-14T15:54:49.996Z,102800.94
2023-02-14T15:59:53.971Z,102801.22
2023-02-14T16:05:04.492Z,102799.59
2023-02-14T16:10:25.372Z,102802.53
2023-02-14T16:15:31.689Z,102809.03
2023-02-14T16:20:43.149Z,102812.06
2023-02-14T16:25:46.526Z,102803.59
2023-02-14T16:30:56.300Z,102741.28
2023-02-14T16:36:06.241Z,102799.34
2023-02-14T16:41:16.028Z,102797.41
2023-02-14T16:46:21.915Z,102801.50
2023-02-14T16:51:27.158Z,102798.06
2023-02-14T16:56:37.495Z,102787.97
2023-02-14T17:01:41.854Z,102797.94
2023-02-14T17:06:48.567Z,102809.16
2023-02-14T17:11:53.443Z,102802.50
2023-02-14T17:16:58.536Z,102817.09
2023-02-14T17:22:01.563Z,102814.94
2023-02-14T17:27:04.205Z,102828.38
2023-02-14T17:32:11.628Z,102824.72
2023-02-14T17:37:14.451Z,102826.38
2023-02-14T17:42:20.009Z,102816.06
2023-02-14T17:47:25.013Z,102817.81
2023-02-14T17:52:29.642Z,102823.97
2023-02-14T17:57:32.264Z,102823.59
2023-02-14T18:02:37.763Z,102829.78
2023-02-14T18:07:41.141Z,102817.94
2023-02-14T18:12:44.826Z,102822.63
2023-02-14T18:17:51.422Z,102818.59
2023-02-14T18:22:53.959Z,102815.41
2023-02-14T18:27:56.614Z,102811.31
2023-02-14T18:33:00.453Z,102801.50
2023-02-14T18:38:02.987Z,102803.47
2023-02-14T18:43:05.573Z,102802.00
2023-02-14T18:48:09.887Z,102799.44
2023-02-14T18:53:12.411Z,102792.59
2023-02-14T18:58:14.951Z,102783.84
2023-02-14T19:03:18.835Z,102784.03
2023-02-14T19:08:21.445Z,102770.22
2023-02-14T19:13:27.927Z,102777.13
2023-02-14T19:18:31.790Z,102766.28
2023-02-14T19:23:34.313Z,102760.88
2023-02-14T19:28:36.874Z,102760.84
2023-02-14T19:33:41.555Z,102743.75
2023-02-14T19:38:46.280Z,102760.66
2023-02-14T19:43:51.271Z,102754.03
2023-02-14T19:48:56.410Z,102750.97
2023-02-14T19:54:00.766Z,102745.56
2023-02-14T19:59:07.613Z,102744.94
2023-02-14T20:04:14.789Z,102747.97
2023-02-14T20:09:18.242Z,102722.09
2023-02-14T20:14:22.509Z,102736.34
2023-02-14T20:19:29.375Z,102733.94
2023-02-14T20:24:33.273Z,102736.31
2023-02-14T20:29:38.855Z,102726.81
2023-02-14T20:34:43.425Z,102729.84
2023-02-14T20:39:46.464Z,102728.75
2023-02-14T20:44:49.043Z,102743.03
2023-02-14T20:49:53.323Z,102729.22
2023-02-14T20:54:56.062Z,102726.94
2023-02-14T20:59:58.601Z,102731.28
2023-02-14T21:05:02.736Z,102722.41
2023-02-14T21:10:07.439Z,102734.94
2023-02-14T21:15:11.294Z,102731.47
2023-02-14T21:20:16.311Z,102726.94
2023-02-14T21:25:19.903Z,102722.66
2023-02-14T21:30:23.906Z,102719.34
2023-02-14T21:35:27.870Z,102721.84
2023-02-14T21:40:30.462Z,102727.47
2023-02-14T21:45:50.865Z,102714.22
2023-02-14T21:50:54.834Z,102721.88
2023-02-14T21:56:05.378Z,102709.00
2023-02-14T22:01:08.937Z,102704.69
2023-02-14T22:06:14.343Z,102703.97
2023-02-14T22:11:17.120Z,102694.59
2023-02-14T22:16:21.628Z,102694.34
2023-02-14T22:21:27.454Z,102695.94
2023-02-14T22:26:31.465Z,102691.19
2023-02-14T22:31:36.530Z,102691.16
2023-02-14T22:36:40.566Z,102686.97
2023-02-14T22:41:45.833Z,102681.16
2023-02-14T22:46:48.938Z,102680.44
2023-02-14T22:51:52.815Z,102682.50
2023-02-14T22:56:55.512Z,102671.59
2023-02-14T23:01:58.158Z,102673.25
2023-02-14T23:07:02.079Z,102665.09
2023-02-14T23:12:25.138Z,102666.00
2023-02-14T23:17:45.108Z,102625.91
2023-02-14T23:22:49.438Z,102675.47
2023-02-14T23:27:52.130Z,102665.97
2023-02-14T23:32:54.727Z,102660.47
2023-02-14T23:37:58.603Z,102668.41
2023-02-14T23:43:01.178Z,102663.28
2023-02-14T23:48:04.980Z,102668.63
2023-02-14T23:53:08.835Z,102666.75
2023-02-14T23:58:11.332Z,102647.75
